sensor_id;sensor_type;location;lat;lon;timestamp;temperature;humidity
4356;DHT22;64374;51.482;7.408;2023-03-05T00:01:34;9.30;99.90
4356;DHT22;64374;51.482;7.408;2023-03-05T00:04:04;9.40;99.90
4356;DHT22;64374;51.482;7.408;2023-03-05T00:06:38;9.50;99.90
4356;DHT22;64374;51.482;7.408;2023-03-05T00:09:08;9.30;99.90
4356;DHT22;64374;51.482;7.408;2023-03-05T00:11:36;9.10;99.90
4356;DHT22;64374;51.482;7.408;2023-03-05T00:14:06;8.90;99.90
4356;DHT22;64374;51.482;7.408;2023-03-05T00:16:34;8.70;99.90
4356;DHT22;64374;51.482;7.408;2023-03-05T00:19:03;8.80;99.90
4356;DHT22;64374;51.482;7.408;2023-03-05T00:21:34;8.70;99.90
4356;DHT22;64374;51.482;7.408;2023-03-05T00:24:07;8.80;99.90
4356;DHT22;64374;51.482;7.408;2023-03-05T00:26:38;8.80;99.90
4356;DHT22;64374;51.482;7.408;2023-03-05T00:29:08;9.00;99.90
4356;DHT22;64374;51.482;7.408;2023-03-05T00:31:37;8.60;99.90
4356;DHT22;64374;51.482;7.408;2023-03-05T00:34:12;8.50;99.90
4356;DHT22;64374;51.482;7.408;2023-03-05T00:36:43;8.30;99.90
4356;DHT22;64374;51.482;7.408;2023-03-05T00:39:14;8.40;99.90
4356;DHT22;64374;51.482;7.408;2023-03-05T00:41:43;8.40;99.90
4356;DHT22;64374;51.482;7.408;2023-03-05T00:44:12;8.50;99.90
4356;DHT22;64374;51.482;7.408;2023-03-05T00:46:43;8.30;99.90
4356;DHT22;64374;51.482;7.408;2023-03-05T00:49:12;8.10;99.90
4356;DHT22;64374;51.482;7.408;2023-03-05T00:51:41;7.80;99.90
4356;DHT22;64374;51.482;7.408;2023-03-05T00:54:10;7.80;99.90
4356;DHT22;64374;51.482;7.408;2023-03-05T00:56:42;7.60;99.90
4356;DHT22;64374;51.482;7.408;2023-03-05T00:59:14;7.20;99.90
4356;DHT22;64374;51.482;7.408;2023-03-05T01:01:42;7.00;99.90
4356;DHT22;64374;51.482;7.408;2023-03-05T01:04:11;7.10;99.90
4356;DHT22;64374;51.482;7.408;2023-03-05T01:06:40;7.20;99.90
4356;DHT22;64374;51.482;7.408;2023-03-05T01:09:13;7.00;99.90
4356;DHT22;64374;51.482;7.408;2023-03-05T01:11:43;6.90;99.90
4356;DHT22;64374;51.482;7.408;2023-03-05T01:14:13;6.80;99.90
4356;DHT22;64374;51.482;7.408;2023-03-05T01:16:41;6.50;99.90
4356;DHT22;64374;51.482;7.408;2023-03-05T01:19:10;6.60;99.90
4356;DHT22;64374;51.482;7.408;2023-03-05T01:21:41;6.60;99.90
4356;DHT22;64374;51.482;7.408;2023-03-05T01:24:11;6.80;99.90
4356;DHT22;64374;51.482;7.408;2023-03-05T01:26:40;6.80;99.90
4356;DHT22;64374;51.482;7.408;2023-03-05T01:29:09;6.90;99.90
4356;DHT22;64374;51.482;7.408;2023-03-05T01:31:39;6.90;99.90
4356;DHT22;64374;51.482;7.408;2023-03-05T01:34:08;6.80;99.90
4356;DHT22;64374;51.482;7.408;2023-03-05T01:36:36;6.90;99.90
4356;DHT22;64374;51.482;7.408;2023-03-05T01:39:05;7.00;99.90
4356;DHT22;64374;51.482;7.408;2023-03-05T01:41:34;6.70;99.90
4356;DHT22;64374;51.482;7.408;2023-03-05T01:44:04;6.80;99.90
4356;DHT22;64374;51.482;7.408;2023-03-05T01:46:35;6.50;99.90
4356;DHT22;64374;51.482;7.408;2023-03-05T01:49:12;6.40;99.90
4356;DHT22;64374;51.482;7.408;2023-03-05T01:51:59;6.30;99.90
4356;DHT22;64374;51.482;7.408;2023-03-05T01:54:32;6.20;99.90
4356;DHT22;64374;51.482;7.408;2023-03-05T01:57:06;6.30;99.90
4356;DHT22;64374;51.482;7.408;2023-03-05T01:59:38;6.30;99.90
4356;DHT22;64374;51.482;7.408;2023-03-05T02:02:10;6.10;99.90
4356;DHT22;64374;51.482;7.408;2023-03-05T02:04:42;6.20;99.90
4356;DHT22;64374;51.482;7.408;2023-03-05T02:07:13;6.10;99.90
4356;DHT22;64374;51.482;7.408;2023-03-05T02:09:43;6.00;99.90
4356;DHT22;64374;51.482;7.408;2023-03-05T02:12:12;6.10;99.90
4356;DHT22;64374;51.482;7.408;2023-03-05T02:14:44;6.20;99.90
4356;DHT22;64374;51.482;7.408;2023-03-05T02:17:16;6.20;99.90
4356;DHT22;64374;51.482;7.408;2023-03-05T02:19:49;6.20;99.90
4356;DHT22;64374;51.482;7.408;2023-03-05T02:22:22;6.30;99.90
4356;DHT22;64374;51.482;7.408;2023-03-05T02:24:52;6.50;99.90
4356;DHT22;64374;51.482;7.408;2023-03-05T02:27:25;6.60;99.90
4356;DHT22;64374;51.482;7.408;2023-03-05T02:30:01;6.90;99.90
4356;DHT22;64374;51.482;7.408;2023-03-05T02:32:29;7.20;99.90
4356;DHT22;64374;51.482;7.408;2023-03-05T02:34:58;7.20;99.90
4356;DHT22;64374;51.482;7.408;2023-03-05T02:37:28;7.30;99.90
4356;DHT22;64374;51.482;7.408;2023-03-05T02:39:57;7.00;99.90
4356;DHT22;64374;51.482;7.408;2023-03-05T02:42:28;6.90;99.90
4356;DHT22;64374;51.482;7.408;2023-03-05T02:45:00;7.10;99.90
4356;DHT22;64374;51.482;7.408;2023-03-05T02:47:29;7.30;99.90
4356;DHT22;64374;51.482;7.408;2023-03-05T02:49:59;7.10;99.90
4356;DHT22;64374;51.482;7.408;2023-03-05T02:52:30;7.20;99.90
4356;DHT22;64374;51.482;7.408;2023-03-05T02:54:59;7.20;99.90
4356;DHT22;64374;51.482;7.408;2023-03-05T02:57:29;7.40;99.90
4356;DHT22;64374;51.482;7.408;2023-03-05T02:59:58;7.50;99.90
4356;DHT22;64374;51.482;7.408;2023-03-05T03:02:27;7.50;99.90
4356;DHT22;64374;51.482;7.408;2023-03-05T03:04:57;7.70;99.90
4356;DHT22;64374;51.482;7.408;2023-03-05T03:07:26;7.80;99.90
4356;DHT22;64374;51.482;7.408;2023-03-05T03:09:56;7.70;99.90
4356;DHT22;64374;51.482;7.408;2023-03-05T03:12:25;7.80;99.90
4356;DHT22;64374;51.482;7.408;2023-03-05T03:14:53;7.70;99.90
4356;DHT22;64374;51.482;7.408;2023-03-05T03:17:22;7.40;99.90
4356;DHT22;64374;51.482;7.408;2023-03-05T03:19:51;7.30;99.90
4356;DHT22;64374;51.482;7.408;2023-03-05T03:22:20;7.30;99.90
4356;DHT22;64374;51.482;7.408;2023-03-05T03:24:49;7.30;99.90
4356;DHT22;64374;51.482;7.408;2023-03-05T03:27:19;7.20;99.90
4356;DHT22;64374;51.482;7.408;2023-03-05T03:29:48;7.20;99.90
4356;DHT22;64374;51.482;7.408;2023-03-05T03:32:16;7.20;99.90
4356;DHT22;64374;51.482;7.408;2023-03-05T03:34:45;7.10;99.90
4356;DHT22;64374;51.482;7.408;2023-03-05T03:37:14;7.00;99.90
4356;DHT22;64374;51.482;7.408;2023-03-05T03:39:43;7.20;99.90
4356;DHT22;64374;51.482;7.408;2023-03-05T03:42:11;7.30;99.90
4356;DHT22;64374;51.482;7.408;2023-03-05T03:44:41;7.40;99.90
4356;DHT22;64374;51.482;7.408;2023-03-05T03:47:10;7.20;99.90
4356;DHT22;64374;51.482;7.408;2023-03-05T03:49:38;7.10;99.90
4356;DHT22;64374;51.482;7.408;2023-03-05T03:52:07;7.20;99.90
4356;DHT22;64374;51.482;7.408;2023-03-05T03:54:36;7.30;99.90
4356;DHT22;64374;51.482;7.408;2023-03-05T03:57:05;7.30;99.90
4356;DHT22;64374;51.482;7.408;2023-03-05T03:59:41;7.30;99.90
4356;DHT22;64374;51.482;7.408;2023-03-05T04:02:11;7.30;99.90
4356;DHT22;64374;51.482;7.408;2023-03-05T04:04:40;7.10;99.90
4356;DHT22;64374;51.482;7.408;2023-03-05T04:07:09;7.20;99.90
4356;DHT22;64374;51.482;7.408;2023-03-05T04:09:38;7.10;99.90
4356;DHT22;64374;51.482;7.408;2023-03-05T04:12:07;7.10;99.90
4356;DHT22;64374;51.482;7.408;2023-03-05T04:15:00;7.00;99.90
4356;DHT22;64374;51.482;7.408;2023-03-05T04:17:29;7.30;99.90
4356;DHT22;64374;51.482;7.408;2023-03-05T04:19:57;7.30;99.90
4356;DHT22;64374;51.482;7.408;2023-03-05T04:22:26;7.30;99.90
4356;DHT22;64374;51.482;7.408;2023-03-05T04:24:54;7.40;99.90
4356;DHT22;64374;51.482;7.408;2023-03-05T04:27:23;7.40;99.90
4356;DHT22;64374;51.482;7.408;2023-03-05T04:29:51;7.30;99.90
4356;DHT22;64374;51.482;7.408;2023-03-05T04:32:24;7.20;99.90
4356;DHT22;64374;51.482;7.408;2023-03-05T04:34:55;7.10;99.90
4356;DHT22;64374;51.482;7.408;2023-03-05T04:37:23;7.10;99.90
4356;DHT22;64374;51.482;7.408;2023-03-05T04:39:53;6.70;99.90
4356;DHT22;64374;51.482;7.408;2023-03-05T04:42:22;6.60;99.90
4356;DHT22;64374;51.482;7.408;2023-03-05T04:44:51;6.30;99.90
4356;DHT22;64374;51.482;7.408;2023-03-05T04:47:19;6.20;99.90
4356;DHT22;64374;51.482;7.408;2023-03-05T04:49:49;6.40;99.90
4356;DHT22;64374;51.482;7.408;2023-03-05T04:52:18;6.60;99.90
4356;DHT22;64374;51.482;7.408;2023-03-05T04:54:46;6.70;99.90
4356;DHT22;64374;51.482;7.408;2023-03-05T04:57:15;6.70;99.90
4356;DHT22;64374;51.482;7.408;2023-03-05T04:59:44;6.40;99.90
4356;DHT22;64374;51.482;7.408;2023-03-05T05:02:13;6.30;99.90
4356;DHT22;64374;51.482;7.408;2023-03-05T05:04:41;6.30;99.90
4356;DHT22;64374;51.482;7.408;2023-03-05T05:07:15;6.40;99.90
4356;DHT22;64374;51.482;7.408;2023-03-05T05:09:45;6.50;99.90
4356;DHT22;64374;51.482;7.408;2023-03-05T05:12:13;6.50;99.90
4356;DHT22;64374;51.482;7.408;2023-03-05T05:14:41;6.60;99.90
4356;DHT22;64374;51.482;7.408;2023-03-05T05:17:10;6.70;99.90
4356;DHT22;64374;51.482;7.408;2023-03-05T05:19:38;6.80;99.90
4356;DHT22;64374;51.482;7.408;2023-03-05T05:22:07;6.90;99.90
4356;DHT22;64374;51.482;7.408;2023-03-05T05:24:37;7.00;99.90
4356;DHT22;64374;51.482;7.408;2023-03-05T05:27:08;7.00;99.90
4356;DHT22;64374;51.482;7.408;2023-03-05T05:29:41;6.80;99.90
4356;DHT22;64374;51.482;7.408;2023-03-05T05:32:09;6.60;99.90
4356;DHT22;64374;51.482;7.408;2023-03-05T05:34:39;6.70;99.90
4356;DHT22;64374;51.482;7.408;2023-03-05T05:37:07;6.90;99.90
4356;DHT22;64374;51.482;7.408;2023-03-05T05:39:37;6.90;99.90
4356;DHT22;64374;51.482;7.408;2023-03-05T05:42:06;6.60;99.90
4356;DHT22;64374;51.482;7.408;2023-03-05T05:44:34;6.10;99.90
4356;DHT22;64374;51.482;7.408;2023-03-05T05:47:03;6.40;99.90
4356;DHT22;64374;51.482;7.408;2023-03-05T05:49:31;6.20;99.90
4356;DHT22;64374;51.482;7.408;2023-03-05T05:52:00;6.20;99.90
4356;DHT22;64374;51.482;7.408;2023-03-05T05:54:28;6.20;99.90
4356;DHT22;64374;51.482;7.408;2023-03-05T05:56:58;6.30;99.90
4356;DHT22;64374;51.482;7.408;2023-03-05T05:59:27;6.20;99.90
4356;DHT22;64374;51.482;7.408;2023-03-05T06:01:56;6.30;99.90
4356;DHT22;64374;51.482;7.408;2023-03-05T06:04:25;6.40;99.90
4356;DHT22;64374;51.482;7.408;2023-03-05T06:06:54;6.50;99.90
4356;DHT22;64374;51.482;7.408;2023-03-05T06:09:22;6.50;99.90
4356;DHT22;64374;51.482;7.408;2023-03-05T06:11:50;6.50;99.90
4356;DHT22;64374;51.482;7.408;2023-03-05T06:14:23;6.60;99.90
4356;DHT22;64374;51.482;7.408;2023-03-05T06:16:52;6.40;99.90
4356;DHT22;64374;51.482;7.408;2023-03-05T06:19:20;6.40;99.90
4356;DHT22;64374;51.482;7.408;2023-03-05T06:21:48;6.60;99.90
4356;DHT22;64374;51.482;7.408;2023-03-05T06:24:16;6.70;99.90
4356;DHT22;64374;51.482;7.408;2023-03-05T06:26:46;6.80;99.90
4356;DHT22;64374;51.482;7.408;2023-03-05T06:29:15;6.80;99.90
4356;DHT22;64374;51.482;7.408;2023-03-05T06:31:46;6.90;99.90
4356;DHT22;64374;51.482;7.408;2023-03-05T06:34:15;7.00;99.90
4356;DHT22;64374;51.482;7.408;2023-03-05T06:36:43;7.30;99.90
4356;DHT22;64374;51.482;7.408;2023-03-05T06:39:11;7.00;99.90
4356;DHT22;64374;51.482;7.408;2023-03-05T06:41:39;7.00;99.90
4356;DHT22;64374;51.482;7.408;2023-03-05T06:44:08;7.20;99.90
4356;DHT22;64374;51.482;7.408;2023-03-05T06:46:38;7.10;99.90
4356;DHT22;64374;51.482;7.408;2023-03-05T06:49:11;7.10;99.90
4356;DHT22;64374;51.482;7.408;2023-03-05T06:51:40;7.10;99.90
4356;DHT22;64374;51.482;7.408;2023-03-05T06:54:10;7.00;99.90
4356;DHT22;64374;51.482;7.408;2023-03-05T06:56:41;6.90;99.90
4356;DHT22;64374;51.482;7.408;2023-03-05T06:59:14;7.00;99.90
4356;DHT22;64374;51.482;7.408;2023-03-05T07:01:43;7.10;99.90
4356;DHT22;64374;51.482;7.408;2023-03-05T07:04:16;7.20;99.90
4356;DHT22;64374;51.482;7.408;2023-03-05T07:06:44;7.00;99.90
4356;DHT22;64374;51.482;7.408;2023-03-05T07:09:14;6.70;99.90
4356;DHT22;64374;51.482;7.408;2023-03-05T07:11:43;6.70;99.90
4356;DHT22;64374;51.482;7.408;2023-03-05T07:14:12;6.90;99.90
4356;DHT22;64374;51.482;7.408;2023-03-05T07:16:43;6.90;99.90
4356;DHT22;64374;51.482;7.408;2023-03-05T07:19:11;7.10;99.90
4356;DHT22;64374;51.482;7.408;2023-03-05T07:21:42;7.30;99.90
4356;DHT22;64374;51.482;7.408;2023-03-05T07:24:11;7.10;99.90
4356;DHT22;64374;51.482;7.408;2023-03-05T07:26:42;7.00;99.90
4356;DHT22;64374;51.482;7.408;2023-03-05T07:29:13;6.90;99.90
4356;DHT22;64374;51.482;7.408;2023-03-05T07:31:41;7.10;99.90
4356;DHT22;64374;51.482;7.408;2023-03-05T07:34:11;7.30;99.90
4356;DHT22;64374;51.482;7.408;2023-03-05T07:36:39;7.50;99.90
4356;DHT22;64374;51.482;7.408;2023-03-05T07:39:11;7.50;99.90
4356;DHT22;64374;51.482;7.408;2023-03-05T07:41:40;7.40;99.90
4356;DHT22;64374;51.482;7.408;2023-03-05T07:44:08;7.50;99.90
4356;DHT22;64374;51.482;7.408;2023-03-05T07:46:38;7.20;99.90
4356;DHT22;64374;51.482;7.408;2023-03-05T07:49:06;7.30;99.90
4356;DHT22;64374;51.482;7.408;2023-03-05T07:51:34;7.30;99.90
4356;DHT22;64374;51.482;7.408;2023-03-05T07:54:02;7.40;99.90
4356;DHT22;64374;51.482;7.408;2023-03-05T07:56:37;7.40;99.90
4356;DHT22;64374;51.482;7.408;2023-03-05T07:59:07;7.40;99.90
4356;DHT22;64374;51.482;7.408;2023-03-05T08:01:40;7.20;99.90
4356;DHT22;64374;51.482;7.408;2023-03-05T08:04:08;7.00;99.90
4356;DHT22;64374;51.482;7.408;2023-03-05T08:06:38;7.00;99.90
4356;DHT22;64374;51.482;7.408;2023-03-05T08:09:07;7.20;99.90
4356;DHT22;64374;51.482;7.408;2023-03-05T08:11:38;7.00;99.90
4356;DHT22;64374;51.482;7.408;2023-03-05T08:14:07;7.00;99.90
4356;DHT22;64374;51.482;7.408;2023-03-05T08:16:38;7.10;99.90
4356;DHT22;64374;51.482;7.408;2023-03-05T08:19:06;7.20;99.90
4356;DHT22;64374;51.482;7.408;2023-03-05T08:21:36;7.40;99.90
4356;DHT22;64374;51.482;7.408;2023-03-05T08:24:06;7.30;99.90
4356;DHT22;64374;51.482;7.408;2023-03-05T08:26:37;7.30;99.90
4356;DHT22;64374;51.482;7.408;2023-03-05T08:29:09;7.30;99.90
4356;DHT22;64374;51.482;7.408;2023-03-05T08:31:37;7.30;99.90
4356;DHT22;64374;51.482;7.408;2023-03-05T08:34:08;7.20;99.90
4356;DHT22;64374;51.482;7.408;2023-03-05T08:36:36;7.20;99.90
4356;DHT22;64374;51.482;7.408;2023-03-05T08:39:05;7.40;99.90
4356;DHT22;64374;51.482;7.408;2023-03-05T08:41:38;7.20;99.90
4356;DHT22;64374;51.482;7.408;2023-03-05T08:44:07;7.00;99.90
4356;DHT22;64374;51.482;7.408;2023-03-05T08:46:38;6.70;99.90
4356;DHT22;64374;51.482;7.408;2023-03-05T08:49:06;6.80;99.90
4356;DHT22;64374;51.482;7.408;2023-03-05T08:51:35;6.80;99.90
4356;DHT22;64374;51.482;7.408;2023-03-05T08:54:03;6.70;99.90
4356;DHT22;64374;51.482;7.408;2023-03-05T08:56:33;6.80;99.90
4356;DHT22;64374;51.482;7.408;2023-03-05T08:59:04;6.80;99.90
4356;DHT22;64374;51.482;7.408;2023-03-05T09:01:32;6.80;99.90
4356;DHT22;64374;51.482;7.408;2023-03-05T09:04:00;6.70;99.90
4356;DHT22;64374;51.482;7.408;2023-03-05T09:06:31;6.70;99.90
4356;DHT22;64374;51.482;7.408;2023-03-05T09:09:00;6.80;99.90
4356;DHT22;64374;51.482;7.408;2023-03-05T09:11:29;7.10;99.90
4356;DHT22;64374;51.482;7.408;2023-03-05T09:13:57;7.30;99.90
4356;DHT22;64374;51.482;7.408;2023-03-05T09:16:29;7.40;99.90
4356;DHT22;64374;51.482;7.408;2023-03-05T09:18:59;7.30;99.90
4356;DHT22;64374;51.482;7.408;2023-03-05T09:21:27;7.00;99.90
4356;DHT22;64374;51.482;7.408;2023-03-05T09:23:55;7.20;99.90
4356;DHT22;64374;51.482;7.408;2023-03-05T09:26:26;7.00;99.90
4356;DHT22;64374;51.482;7.408;2023-03-05T09:28:54;6.80;99.90
4356;DHT22;64374;51.482;7.408;2023-03-05T09:31:22;6.70;99.90
4356;DHT22;64374;51.482;7.408;2023-03-05T09:33:52;6.50;99.90
4356;DHT22;64374;51.482;7.408;2023-03-05T09:36:23;6.50;99.90
4356;DHT22;64374;51.482;7.408;2023-03-05T09:38:52;6.60;99.90
4356;DHT22;64374;51.482;7.408;2023-03-05T09:41:31;6.60;99.90
4356;DHT22;64374;51.482;7.408;2023-03-05T09:44:14;6.90;99.90
4356;DHT22;64374;51.482;7.408;2023-03-05T09:46:51;6.40;99.90
4356;DHT22;64374;51.482;7.408;2023-03-05T09:49:31;6.40;99.90
4356;DHT22;64374;51.482;7.408;2023-03-05T09:52:05;6.70;99.90
4356;DHT22;64374;51.482;7.408;2023-03-05T09:54:38;6.70;99.90
4356;DHT22;64374;51.482;7.408;2023-03-05T09:57:13;6.90;99.90
4356;DHT22;64374;51.482;7.408;2023-03-05T09:59:52;6.90;99.90
4356;DHT22;64374;51.482;7.408;2023-03-05T10:02:25;6.70;99.90
4356;DHT22;64374;51.482;7.408;2023-03-05T10:04:59;6.40;99.90
4356;DHT22;64374;51.482;7.408;2023-03-05T10:07:32;6.10;99.90
4356;DHT22;64374;51.482;7.408;2023-03-05T10:10:04;6.30;99.90
4356;DHT22;64374;51.482;7.408;2023-03-05T10:12:37;6.30;99.90
4356;DHT22;64374;51.482;7.408;2023-03-05T10:15:12;6.30;99.90
4356;DHT22;64374;51.482;7.408;2023-03-05T10:18:03;6.40;99.90
4356;DHT22;64374;51.482;7.408;2023-03-05T10:20:44;6.50;99.90
4356;DHT22;64374;51.482;7.408;2023-03-05T10:23:24;6.70;99.90
4356;DHT22;64374;51.482;7.408;2023-03-05T10:28:48;6.80;99.90
4356;DHT22;64374;51.482;7.408;2023-03-05T10:31:52;7.00;99.90
4356;DHT22;64374;51.482;7.408;2023-03-05T10:35:00;7.20;99.90
4356;DHT22;64374;51.482;7.408;2023-03-05T10:37:52;7.20;99.90
4356;DHT22;64374;51.482;7.408;2023-03-05T10:40:26;7.40;99.90
4356;DHT22;64374;51.482;7.408;2023-03-05T10:43:12;7.60;99.90
4356;DHT22;64374;51.482;7.408;2023-03-05T10:45:43;7.50;99.90
4356;DHT22;64374;51.482;7.408;2023-03-05T10:48:17;7.50;99.90
4356;DHT22;64374;51.482;7.408;2023-03-05T10:50:52;7.40;99.90
4356;DHT22;64374;51.482;7.408;2023-03-05T10:53:27;7.50;99.90
4356;DHT22;64374;51.482;7.408;2023-03-05T10:56:00;7.40;99.90
4356;DHT22;64374;51.482;7.408;2023-03-05T10:58:29;7.50;99.90
4356;DHT22;64374;51.482;7.408;2023-03-05T11:01:04;7.70;99.90
4356;DHT22;64374;51.482;7.408;2023-03-05T11:03:47;7.70;99.90
4356;DHT22;64374;51.482;7.408;2023-03-05T11:06:31;7.70;99.90
4356;DHT22;64374;51.482;7.408;2023-03-05T11:09:22;7.50;99.90
4356;DHT22;64374;51.482;7.408;2023-03-05T11:12:05;7.50;99.90
4356;DHT22;64374;51.482;7.408;2023-03-05T11:14:40;7.60;99.90
4356;DHT22;64374;51.482;7.408;2023-03-05T11:17:43;7.60;99.90
4356;DHT22;64374;51.482;7.408;2023-03-05T11:20:29;7.60;99.90
4356;DHT22;64374;51.482;7.408;2023-03-05T11:23:07;7.70;99.90
4356;DHT22;64374;51.482;7.408;2023-03-05T11:25:53;7.80;99.90
4356;DHT22;64374;51.482;7.408;2023-03-05T11:28:28;7.70;99.90
4356;DHT22;64374;51.482;7.408;2023-03-05T11:31:11;7.80;99.90
4356;DHT22;64374;51.482;7.408;2023-03-05T11:33:55;7.50;99.90
4356;DHT22;64374;51.482;7.408;2023-03-05T11:36:26;7.40;99.90
4356;DHT22;64374;51.482;7.408;2023-03-05T11:38:57;7.30;99.90
4356;DHT22;64374;51.482;7.408;2023-03-05T11:41:36;7.30;99.90
4356;DHT22;64374;51.482;7.408;2023-03-05T11:44:10;7.30;99.90
4356;DHT22;64374;51.482;7.408;2023-03-05T11:46:43;7.50;99.90
4356;DHT22;64374;51.482;7.408;2023-03-05T11:49:15;7.50;99.90
4356;DHT22;64374;51.482;7.408;2023-03-05T11:51:52;7.50;99.90
4356;DHT22;64374;51.482;7.408;2023-03-05T11:54:30;7.40;99.90
4356;DHT22;64374;51.482;7.408;2023-03-05T11:57:03;7.40;99.90
4356;DHT22;64374;51.482;7.408;2023-03-05T11:59:34;7.50;99.90
4356;DHT22;64374;51.482;7.408;2023-03-05T12:02:16;7.30;99.90
4356;DHT22;64374;51.482;7.408;2023-03-05T12:04:46;7.20;99.90
4356;DHT22;64374;51.482;7.408;2023-03-05T12:07:18;7.20;99.90
4356;DHT22;64374;51.482;7.408;2023-03-05T12:09:50;7.30;99.90
4356;DHT22;64374;51.482;7.408;2023-03-05T12:12:33;7.20;99.90
4356;DHT22;64374;51.482;7.408;2023-03-05T12:15:23;7.40;99.90
4356;DHT22;64374;51.482;7.408;2023-03-05T12:18:02;7.70;99.90
4356;DHT22;64374;51.482;7.408;2023-03-05T12:20:41;7.60;99.90
4356;DHT22;64374;51.482;7.408;2023-03-05T12:23:12;7.80;99.90
4356;DHT22;64374;51.482;7.408;2023-03-05T12:25:46;7.80;99.90
4356;DHT22;64374;51.482;7.408;2023-03-05T12:28:52;7.90;99.90
4356;DHT22;64374;51.482;7.408;2023-03-05T12:31:43;7.90;99.90
4356;DHT22;64374;51.482;7.408;2023-03-05T12:34:34;7.80;99.90
4356;DHT22;64374;51.482;7.408;2023-03-05T12:37:03;7.60;99.90
4356;DHT22;64374;51.482;7.408;2023-03-05T12:39:58;7.40;99.90
4356;DHT22;64374;51.482;7.408;2023-03-05T12:42:55;7.20;99.90
4356;DHT22;64374;51.482;7.408;2023-03-05T12:45:36;7.40;99.90
4356;DHT22;64374;51.482;7.408;2023-03-05T12:48:33;7.80;99.90
4356;DHT22;64374;51.482;7.408;2023-03-05T12:51:03;8.10;99.90
4356;DHT22;64374;51.482;7.408;2023-03-05T12:53:31;8.00;99.90
4356;DHT22;64374;51.482;7.408;2023-03-05T12:56:02;8.00;99.90
4356;DHT22;64374;51.482;7.408;2023-03-05T12:58:42;8.20;99.90
4356;DHT22;64374;51.482;7.408;2023-03-05T13:01:26;8.20;99.90
4356;DHT22;64374;51.482;7.408;2023-03-05T13:03:58;8.20;99.90
4356;DHT22;64374;51.482;7.408;2023-03-05T13:06:29;8.40;99.90
4356;DHT22;64374;51.482;7.408;2023-03-05T13:09:01;8.50;99.90
4356;DHT22;64374;51.482;7.408;2023-03-05T13:11:31;8.40;99.90
4356;DHT22;64374;51.482;7.408;2023-03-05T13:14:01;8.70;99.90
4356;DHT22;64374;51.482;7.408;2023-03-05T13:16:37;8.80;99.90
4356;DHT22;64374;51.482;7.408;2023-03-05T13:19:14;8.80;99.90
4356;DHT22;64374;51.482;7.408;2023-03-05T13:21:43;9.00;99.90
4356;DHT22;64374;51.482;7.408;2023-03-05T13:24:16;9.10;99.90
4356;DHT22;64374;51.482;7.408;2023-03-05T13:26:45;8.80;99.90
4356;DHT22;64374;51.482;7.408;2023-03-05T13:29:15;9.00;99.90
4356;DHT22;64374;51.482;7.408;2023-03-05T13:31:48;9.20;99.90
4356;DHT22;64374;51.482;7.408;2023-03-05T13:34:20;9.30;99.90
4356;DHT22;64374;51.482;7.408;2023-03-05T13:36:57;9.20;99.90
4356;DHT22;64374;51.482;7.408;2023-03-05T13:39:28;9.10;99.90
4356;DHT22;64374;51.482;7.408;2023-03-05T13:42:02;9.00;99.90
4356;DHT22;64374;51.482;7.408;2023-03-05T13:44:32;9.00;99.90
4356;DHT22;64374;51.482;7.408;2023-03-05T13:47:23;9.10;99.90
4356;DHT22;64374;51.482;7.408;2023-03-05T13:49:55;8.90;99.90
4356;DHT22;64374;51.482;7.408;2023-03-05T13:52:28;9.10;99.90
4356;DHT22;64374;51.482;7.408;2023-03-05T13:54:58;9.50;99.90
4356;DHT22;64374;51.482;7.408;2023-03-05T13:57:36;9.80;99.90
4356;DHT22;64374;51.482;7.408;2023-03-05T14:00:29;9.80;99.90
4356;DHT22;64374;51.482;7.408;2023-03-05T14:03:08;10.00;99.90
4356;DHT22;64374;51.482;7.408;2023-03-05T14:05:42;10.10;99.90
4356;DHT22;64374;51.482;7.408;2023-03-05T14:08:20;10.00;99.90
4356;DHT22;64374;51.482;7.408;2023-03-05T14:10:50;9.80;99.90
4356;DHT22;64374;51.482;7.408;2023-03-05T14:13:22;9.80;99.90
4356;DHT22;64374;51.482;7.408;2023-03-05T14:16:04;9.50;99.90
4356;DHT22;64374;51.482;7.408;2023-03-05T14:18:36;9.10;99.90
4356;DHT22;64374;51.482;7.408;2023-03-05T14:21:08;9.10;99.90
4356;DHT22;64374;51.482;7.408;2023-03-05T14:23:40;8.80;99.90
4356;DHT22;64374;51.482;7.408;2023-03-05T14:26:29;8.80;99.90
4356;DHT22;64374;51.482;7.408;2023-03-05T14:29:00;8.80;99.90
4356;DHT22;64374;51.482;7.408;2023-03-05T14:31:30;9.10;99.90
4356;DHT22;64374;51.482;7.408;2023-03-05T14:34:04;9.20;99.90
4356;DHT22;64374;51.482;7.408;2023-03-05T14:36:33;9.10;99.90
4356;DHT22;64374;51.482;7.408;2023-03-05T14:39:02;9.10;99.90
4356;DHT22;64374;51.482;7.408;2023-03-05T14:41:35;9.30;99.90
4356;DHT22;64374;51.482;7.408;2023-03-05T14:44:12;9.50;99.90
4356;DHT22;64374;51.482;7.408;2023-03-05T14:46:42;9.20;99.90
4356;DHT22;64374;51.482;7.408;2023-03-05T14:49:12;9.20;99.90
4356;DHT22;64374;51.482;7.408;2023-03-05T14:51:42;9.50;99.90
4356;DHT22;64374;51.482;7.408;2023-03-05T14:54:19;9.80;99.90
4356;DHT22;64374;51.482;7.408;2023-03-05T14:56:49;9.50;99.90
4356;DHT22;64374;51.482;7.408;2023-03-05T14:59:18;9.60;99.90
4356;DHT22;64374;51.482;7.408;2023-03-05T15:01:47;9.80;99.90
4356;DHT22;64374;51.482;7.408;2023-03-05T15:04:18;9.90;99.90
4356;DHT22;64374;51.482;7.408;2023-03-05T15:06:47;10.00;99.90
4356;DHT22;64374;51.482;7.408;2023-03-05T15:09:21;9.90;99.90
4356;DHT22;64374;51.482;7.408;2023-03-05T15:11:49;10.10;99.90
4356;DHT22;64374;51.482;7.408;2023-03-05T15:14:17;10.00;99.90
4356;DHT22;64374;51.482;7.408;2023-03-05T15:16:49;9.40;99.90
4356;DHT22;64374;51.482;7.408;2023-03-05T15:19:20;9.40;99.90
4356;DHT22;64374;51.482;7.408;2023-03-05T15:21:51;9.30;99.90
4356;DHT22;64374;51.482;7.408;2023-03-05T15:24:19;9.30;99.90
4356;DHT22;64374;51.482;7.408;2023-03-05T15:26:48;9.10;99.90
4356;DHT22;64374;51.482;7.408;2023-03-05T15:29:17;9.20;99.90
4356;DHT22;64374;51.482;7.408;2023-03-05T15:31:46;9.30;99.90
4356;DHT22;64374;51.482;7.408;2023-03-05T15:34:14;9.20;99.90
4356;DHT22;64374;51.482;7.408;2023-03-05T15:36:44;9.20;99.90
4356;DHT22;64374;51.482;7.408;2023-03-05T15:39:15;8.80;99.90
4356;DHT22;64374;51.482;7.408;2023-03-05T15:41:44;8.70;99.90
4356;DHT22;64374;51.482;7.408;2023-03-05T15:44:12;8.80;99.90
4356;DHT22;64374;51.482;7.408;2023-03-05T15:46:40;8.70;99.90
4356;DHT22;64374;51.482;7.408;2023-03-05T15:49:10;8.80;99.90
4356;DHT22;64374;51.482;7.408;2023-03-05T15:51:40;8.90;99.90
4356;DHT22;64374;51.482;7.408;2023-03-05T15:54:10;9.00;99.90
4356;DHT22;64374;51.482;7.408;2023-03-05T15:57:00;8.70;99.90
4356;DHT22;64374;51.482;7.408;2023-03-05T15:59:28;8.30;99.90
4356;DHT22;64374;51.482;7.408;2023-03-05T16:01:56;8.20;99.90
4356;DHT22;64374;51.482;7.408;2023-03-05T16:04:25;8.30;99.90
4356;DHT22;64374;51.482;7.408;2023-03-05T16:06:55;8.40;99.90
4356;DHT22;64374;51.482;7.408;2023-03-05T16:09:28;8.40;99.90
4356;DHT22;64374;51.482;7.408;2023-03-05T16:11:59;8.50;99.90
4356;DHT22;64374;51.482;7.408;2023-03-05T16:14:29;8.60;99.90
4356;DHT22;64374;51.482;7.408;2023-03-05T16:17:00;8.20;99.90
4356;DHT22;64374;51.482;7.408;2023-03-05T16:19:31;8.20;99.90
4356;DHT22;64374;51.482;7.408;2023-03-05T16:22:00;8.20;99.90
4356;DHT22;64374;51.482;7.408;2023-03-05T16:24:29;8.20;99.90
4356;DHT22;64374;51.482;7.408;2023-03-05T16:27:01;8.30;99.90
4356;DHT22;64374;51.482;7.408;2023-03-05T16:29:30;8.20;99.90
4356;DHT22;64374;51.482;7.408;2023-03-05T16:32:00;8.40;99.90
4356;DHT22;64374;51.482;7.408;2023-03-05T16:34:30;8.40;99.90
4356;DHT22;64374;51.482;7.408;2023-03-05T16:37:00;8.30;99.90